createdAt,value
2022-10-06T00:01:31.843Z,21.80
2022-10-06T00:04:02.795Z,22.20
2022-10-06T00:06:34.089Z,22.00
2022-10-06T00:09:04.973Z,21.80
2022-10-06T00:11:35.884Z,21.50
2022-10-06T00:14:06.753Z,21.90
2022-10-06T00:16:37.669Z,22.30
2022-10-06T00:19:08.578Z,22.00
2022-10-06T00:21:39.530Z,21.50
2022-10-06T00:24:10.446Z,21.80
2022-10-06T00:26:41.351Z,22.10
2022-10-06T00:29:13.370Z,22.40
2022-10-06T00:31:44.339Z,22.00
2022-10-06T00:34:15.323Z,22.00
2022-10-06T00:36:46.255Z,21.90
2022-10-06T00:39:17.187Z,22.20
2022-10-06T00:41:48.089Z,22.20
2022-10-06T00:44:18.952Z,22.30
2022-10-06T00:46:53.623Z,22.50
2022-10-06T00:49:35.712Z,22.30
2022-10-06T00:52:14.743Z,22.10
2022-10-06T00:54:45.626Z,22.10
2022-10-06T00:57:17.552Z,22.10
2022-10-06T00:59:49.046Z,21.90
2022-10-06T01:02:37.743Z,21.90
2022-10-06T01:05:13.733Z,22.00
2022-10-06T01:07:44.774Z,22.00
2022-10-06T01:10:15.798Z,21.80
2022-10-06T01:12:46.809Z,21.90
2022-10-06T01:15:18.035Z,21.90
2022-10-06T01:17:57.575Z,21.80
2022-10-06T01:20:30.059Z,21.90
2022-10-06T01:23:08.210Z,21.70
2022-10-06T01:25:39.571Z,21.90
2022-10-06T01:28:12.081Z,21.90
2022-10-06T01:30:53.065Z,22.20
2022-10-06T01:33:24.568Z,22.00
2022-10-06T01:35:55.855Z,21.50
2022-10-06T01:38:27.342Z,21.30
2022-10-06T01:40:58.670Z,21.20
2022-10-06T01:43:29.545Z,20.90
2022-10-06T01:46:00.670Z,21.00
2022-10-06T01:48:32.101Z,20.70
2022-10-06T01:51:03.686Z,20.50
2022-10-06T01:53:34.689Z,20.50
2022-10-06T01:56:05.937Z,20.60
2022-10-06T01:58:36.902Z,20.60
2022-10-06T02:01:09.418Z,20.60
2022-10-06T02:03:41.214Z,20.60
2022-10-06T02:06:12.176Z,20.40
2022-10-06T02:08:43.276Z,20.30
2022-10-06T02:11:14.607Z,20.20
2022-10-06T02:13:45.785Z,20.10
2022-10-06T02:16:16.796Z,20.20
2022-10-06T02:18:47.771Z,20.10
2022-10-06T02:21:22.207Z,19.90
2022-10-06T02:23:53.173Z,20.00
2022-10-06T02:26:24.703Z,20.10
2022-10-06T02:28:55.565Z,20.00
2022-10-06T02:31:26.654Z,19.90
2022-10-06T02:33:58.889Z,20.00
2022-10-06T02:36:29.868Z,19.90
2022-10-06T02:39:00.735Z,20.00
2022-10-06T02:41:32.750Z,19.90
2022-10-06T02:44:03.671Z,19.50
2022-10-06T02:46:34.637Z,19.70
2022-10-06T02:49:05.535Z,19.80
2022-10-06T02:51:36.421Z,19.90
2022-10-06T02:54:07.266Z,19.90
2022-10-06T02:56:38.451Z,19.90
2022-10-06T02:59:09.363Z,20.10
2022-10-06T03:01:40.350Z,20.10
2022-10-06T03:04:12.105Z,20.00
2022-10-06T03:06:43.603Z,20.00
2022-10-06T03:09:14.492Z,19.90
2022-10-06T03:11:45.737Z,19.60
2022-10-06T03:14:21.308Z,19.90
2022-10-06T03:16:54.759Z,19.90
2022-10-06T03:19:25.765Z,19.90
2022-10-06T03:21:56.729Z,19.50
2022-10-06T03:24:27.630Z,19.40
2022-10-06T03:26:58.586Z,19.40
2022-10-06T03:29:31.025Z,19.60
2022-10-06T03:32:02.063Z,20.10
2022-10-06T03:34:32.941Z,19.90
2022-10-06T03:37:03.928Z,19.90
2022-10-06T03:39:34.860Z,19.70
2022-10-06T03:42:05.804Z,19.80
2022-10-06T03:44:36.949Z,20.00
2022-10-06T03:47:07.983Z,20.20
2022-10-06T03:49:39.054Z,20.40
2022-10-06T03:52:09.958Z,20.30
2022-10-06T03:54:40.970Z,20.40
2022-10-06T03:57:12.069Z,20.30
2022-10-06T03:59:42.962Z,20.10
2022-10-06T04:02:13.924Z,19.90
2022-10-06T04:04:44.878Z,20.20
2022-10-06T04:07:15.791Z,20.30
2022-10-06T04:09:46.829Z,20.20
2022-10-06T04:12:17.707Z,20.10
2022-10-06T04:14:48.553Z,20.20
2022-10-06T04:17:19.484Z,20.10
2022-10-06T04:19:50.314Z,20.30
2022-10-06T04:22:21.240Z,20.20
2022-10-06T04:24:52.176Z,20.20
2022-10-06T04:27:28.880Z,20.30
2022-10-06T04:29:59.797Z,20.10
2022-10-06T04:32:30.735Z,20.40
2022-10-06T04:35:01.637Z,20.40
2022-10-06T04:37:32.604Z,20.40
2022-10-06T04:40:04.633Z,20.50
2022-10-06T04:42:36.815Z,20.50
2022-10-06T04:45:08.316Z,20.70
2022-10-06T04:47:40.174Z,20.80
2022-10-06T04:50:11.151Z,20.90
2022-10-06T04:52:42.040Z,20.70
2022-10-06T04:55:12.945Z,20.50
2022-10-06T04:57:43.910Z,20.70
2022-10-06T05:00:25.305Z,20.80
2022-10-06T05:02:56.391Z,21.20
2022-10-06T05:05:27.532Z,21.20
2022-10-06T05:07:58.409Z,21.00
2022-10-06T05:10:29.299Z,20.70
2022-10-06T05:13:00.321Z,20.50
2022-10-06T05:15:31.395Z,20.50
2022-10-06T05:18:02.505Z,21.00
2022-10-06T05:20:33.495Z,20.60
2022-10-06T05:23:07.231Z,20.60
2022-10-06T05:25:38.148Z,20.60
2022-10-06T05:28:09.059Z,20.60
2022-10-06T05:30:39.946Z,20.40
2022-10-06T05:33:12.255Z,20.40
2022-10-06T05:35:55.323Z,20.50
2022-10-06T05:38:27.866Z,20.50
2022-10-06T05:41:15.577Z,20.50
2022-10-06T05:43:46.887Z,20.50
2022-10-06T05:46:23.777Z,20.50
2022-10-06T05:48:57.728Z,20.80
2022-10-06T05:51:31.846Z,20.90
2022-10-06T05:54:03.633Z,20.90
2022-10-06T05:56:37.818Z,20.90
2022-10-06T05:59:08.718Z,20.80
2022-10-06T06:01:43.838Z,20.70
2022-10-06T06:04:14.869Z,20.90
2022-10-06T06:06:48.752Z,21.00
2022-10-06T06:09:21.788Z,21.10
2022-10-06T06:11:54.955Z,21.20
2022-10-06T06:14:44.571Z,21.30
2022-10-06T06:17:15.549Z,21.10
2022-10-06T06:19:46.480Z,21.20
2022-10-06T06:22:17.371Z,21.00
2022-10-06T06:24:48.336Z,21.00
2022-10-06T06:27:20.308Z,21.20
2022-10-06T06:29:51.541Z,21.30
2022-10-06T06:32:22.571Z,21.00
2022-10-06T06:34:53.830Z,20.80
2022-10-06T06:37:24.705Z,21.20
2022-10-06T06:39:55.582Z,21.10
2022-10-06T06:42:26.519Z,21.10
2022-10-06T06:44:57.396Z,21.20
2022-10-06T06:47:28.288Z,21.10
2022-10-06T06:50:00.265Z,21.10
2022-10-06T06:52:31.639Z,21.20
2022-10-06T06:55:02.506Z,21.40
2022-10-06T06:57:33.417Z,21.70
2022-10-06T07:00:08.035Z,21.70
2022-10-06T07:02:39.001Z,21.40
2022-10-06T07:05:11.515Z,21.70
2022-10-06T07:07:42.461Z,21.80
2022-10-06T07:10:13.568Z,21.50
2022-10-06T07:12:46.032Z,21.20
2022-10-06T07:15:35.198Z,21.30
2022-10-06T07:18:25.004Z,21.30
2022-10-06T07:21:14.577Z,21.40
2022-10-06T07:24:06.926Z,21.50
2022-10-06T07:26:37.807Z,21.70
2022-10-06T07:29:09.236Z,21.60
2022-10-06T07:31:43.033Z,21.60
2022-10-06T07:34:13.960Z,21.70
2022-10-06T07:36:49.122Z,21.90
2022-10-06T07:39:23.013Z,21.90
2022-10-06T07:41:53.941Z,21.90
2022-10-06T07:44:24.839Z,22.30
2022-10-06T07:46:55.735Z,22.30
2022-10-06T07:49:27.364Z,22.70
2022-10-06T07:51:58.408Z,22.80
2022-10-06T07:54:29.532Z,22.40
2022-10-06T07:57:00.472Z,22.20
2022-10-06T07:59:31.426Z,22.30
2022-10-06T08:02:02.350Z,22.30
2022-10-06T08:04:33.301Z,22.30
2022-10-06T08:07:04.498Z,22.60
2022-10-06T08:09:35.437Z,22.40
2022-10-06T08:12:26.315Z,22.50
2022-10-06T08:14:57.418Z,23.00
2022-10-06T08:17:29.746Z,22.70
2022-10-06T08:20:00.678Z,22.70
2022-10-06T08:22:31.656Z,22.70
2022-10-06T08:25:08.345Z,23.00
2022-10-06T08:27:44.256Z,23.10
2022-10-06T08:30:15.765Z,22.80
2022-10-06T08:32:47.757Z,22.70
2022-10-06T08:35:18.635Z,22.70
2022-10-06T08:37:50.254Z,22.40
2022-10-06T08:40:21.209Z,23.30
2022-10-06T08:42:56.155Z,23.30
2022-10-06T08:45:38.591Z,23.40
2022-10-06T08:48:26.940Z,23.40
2022-10-06T08:51:36.366Z,23.30
2022-10-06T08:54:24.596Z,23.30
2022-10-06T08:57:20.976Z,22.90
2022-10-06T08:59:55.241Z,22.90
2022-10-06T09:02:32.574Z,22.90
2022-10-06T09:05:06.763Z,23.30
2022-10-06T09:08:26.470Z,23.30
2022-10-06T09:11:15.551Z,23.30
2022-10-06T09:14:04.234Z,23.40
2022-10-06T09:16:41.622Z,23.30
2022-10-06T09:19:27.839Z,23.30
2022-10-06T09:22:04.794Z,23.30
2022-10-06T09:24:47.507Z,23.10
2022-10-06T09:27:33.464Z,23.30
2022-10-06T09:30:06.316Z,23.40
2022-10-06T09:32:40.468Z,23.40
2022-10-06T09:35:23.933Z,23.80
2022-10-06T09:38:08.356Z,23.90
2022-10-06T09:40:49.804Z,23.90
2022-10-06T09:43:28.934Z,23.60
2022-10-06T09:46:21.707Z,23.70
2022-10-06T09:49:20.137Z,23.70
2022-10-06T09:52:01.595Z,24.20
2022-10-06T09:54:34.816Z,23.90
2022-10-06T09:57:19.994Z,23.70
2022-10-06T09:59:52.831Z,23.70
2022-10-06T10:02:37.122Z,24.10
2022-10-06T10:05:20.969Z,23.50
2022-10-06T10:08:06.275Z,23.70
2022-10-06T10:10:37.809Z,24.20
2022-10-06T10:13:26.667Z,23.50
2022-10-06T10:16:02.167Z,23.20
2022-10-06T10:18:33.812Z,23.80
2022-10-06T10:21:08.378Z,23.80
2022-10-06T10:23:55.397Z,23.90
2022-10-06T10:26:42.337Z,23.80
2022-10-06T10:29:51.204Z,23.80
2022-10-06T10:33:04.733Z,24.10
2022-10-06T10:35:46.483Z,24.00
2022-10-06T10:38:23.415Z,24.00
2022-10-06T10:41:04.807Z,24.10
2022-10-06T10:44:13.117Z,24.80
2022-10-06T10:47:14.736Z,25.30
2022-10-06T10:50:14.639Z,25.90
2022-10-06T10:52:50.027Z,26.30
2022-10-06T10:55:42.110Z,25.90
2022-10-06T10:58:42.939Z,26.00
2022-10-06T11:01:52.489Z,25.70
2022-10-06T11:04:23.480Z,25.80
2022-10-06T11:07:23.508Z,25.70
2022-10-06T11:10:13.763Z,25.80
2022-10-06T11:13:43.345Z,25.20
2022-10-06T11:16:31.558Z,25.50
2022-10-06T11:19:41.899Z,25.20
2022-10-06T11:22:29.231Z,25.00
2022-10-06T11:25:29.123Z,25.40
2022-10-06T11:28:12.031Z,24.70
2022-10-06T11:31:04.477Z,24.70
2022-10-06T11:33:52.898Z,24.70
2022-10-06T11:36:49.490Z,24.80
2022-10-06T11:39:41.427Z,24.90
2022-10-06T11:42:37.745Z,24.80
2022-10-06T11:45:15.426Z,24.70
2022-10-06T11:48:07.882Z,24.70
2022-10-06T11:50:44.576Z,24.90
2022-10-06T11:53:39.815Z,25.00
2022-10-06T11:56:19.717Z,24.80
2022-10-06T11:58:56.599Z,24.90
2022-10-06T12:01:36.477Z,24.70
2022-10-06T12:04:10.184Z,25.20
2022-10-06T12:06:46.444Z,25.10
2022-10-06T12:09:28.255Z,25.00
2022-10-06T12:12:19.022Z,25.10
2022-10-06T12:18:14.167Z,25.40
2022-10-06T12:21:34.436Z,25.60
2022-10-06T12:24:21.880Z,25.10
2022-10-06T12:27:01.483Z,25.30
2022-10-06T12:29:46.122Z,25.60
2022-10-06T12:32:48.770Z,25.40
2022-10-06T12:35:24.684Z,25.00
2022-10-06T12:38:06.197Z,25.00
2022-10-06T12:40:49.317Z,25.10
2022-10-06T12:43:23.207Z,25.00
2022-10-06T12:45:57.138Z,25.30
2022-10-06T12:48:35.544Z,25.40
2022-10-06T12:51:35.021Z,25.20
2022-10-06T12:54:23.572Z,25.60
2022-10-06T12:57:01.941Z,25.30
2022-10-06T12:59:35.338Z,25.50
2022-10-06T13:02:14.631Z,25.20
2022-10-06T13:04:52.627Z,25.10
2022-10-06T13:07:29.442Z,25.10
2022-10-06T13:10:15.309Z,25.00
2022-10-06T13:12:47.722Z,25.60
2022-10-06T13:15:29.610Z,25.40
2022-10-06T13:18:21.570Z,25.50
2022-10-06T13:20:56.805Z,24.90
2022-10-06T13:23:37.659Z,24.80
2022-10-06T13:26:22.677Z,24.70
2022-10-06T13:29:02.732Z,24.90
2022-10-06T13:31:36.559Z,25.30
2022-10-06T13:34:13.105Z,25.00
2022-10-06T13:36:50.528Z,25.00
2022-10-06T13:39:24.677Z,25.20
2022-10-06T13:42:17.666Z,25.40
2022-10-06T13:45:00.074Z,25.30
2022-10-06T13:47:31.181Z,25.40
2022-10-06T13:50:18.792Z,25.40
2022-10-06T13:52:50.765Z,25.30
2022-10-06T13:55:28.392Z,25.00
2022-10-06T13:58:03.370Z,25.10
2022-10-06T14:00:56.217Z,25.30
2022-10-06T14:03:38.267Z,25.30
2022-10-06T14:06:20.731Z,25.70
2022-10-06T14:08:58.006Z,26.30
2022-10-06T14:11:29.836Z,26.80
2022-10-06T14:14:06.337Z,26.50
2022-10-06T14:16:37.263Z,26.70
2022-10-06T14:19:40.734Z,26.10
2022-10-06T14:22:38.226Z,25.90
2022-10-06T14:25:15.160Z,26.00
2022-10-06T14:27:46.042Z,26.60
2022-10-06T14:30:17.034Z,26.40
2022-10-06T14:32:47.922Z,26.90
2022-10-06T14:35:18.870Z,26.70
2022-10-06T14:37:49.722Z,26.80
2022-10-06T14:40:21.171Z,27.40
2022-10-06T14:42:52.027Z,27.30
2022-10-06T14:45:22.937Z,26.90
2022-10-06T14:47:53.851Z,26.80
2022-10-06T14:50:24.702Z,26.80
2022-10-06T14:52:55.588Z,26.60
2022-10-06T14:55:31.030Z,26.20
2022-10-06T14:58:03.491Z,26.60
2022-10-06T15:00:34.451Z,26.30
2022-10-06T15:03:05.537Z,26.40
2022-10-06T15:05:56.414Z,26.80
2022-10-06T15:08:27.764Z,26.10
2022-10-06T15:10:58.617Z,26.10
2022-10-06T15:13:32.055Z,25.60
2022-10-06T15:16:02.968Z,25.50
2022-10-06T15:18:34.003Z,25.90
2022-10-06T15:21:05.239Z,26.30
2022-10-06T15:23:37.423Z,25.90
2022-10-06T15:26:48.169Z,25.80
2022-10-06T15:29:19.301Z,25.20
2022-10-06T15:31:52.854Z,25.20
2022-10-06T15:34:27.676Z,25.10
2022-10-06T15:36:59.437Z,25.60
2022-10-06T15:39:32.103Z,25.40
2022-10-06T15:42:03.435Z,25.20
2022-10-06T15:44:35.096Z,25.00
2022-10-06T15:47:07.845Z,24.70
2022-10-06T15:49:41.604Z,24.60
2022-10-06T15:52:13.574Z,24.70
2022-10-06T15:54:46.457Z,24.80
2022-10-06T15:57:21.002Z,25.10
2022-10-06T15:59:52.679Z,25.00
2022-10-06T16:02:23.650Z,25.00
2022-10-06T16:05:17.254Z,25.00
2022-10-06T16:07:48.181Z,24.90
2022-10-06T16:10:19.082Z,25.10
2022-10-06T16:12:49.986Z,25.20
2022-10-06T16:15:20.843Z,25.00
2022-10-06T16:17:51.696Z,25.00
2022-10-06T16:20:22.527Z,25.10
2022-10-06T16:22:54.505Z,25.10
2022-10-06T16:25:25.409Z,24.80
2022-10-06T16:27:56.386Z,24.70
2022-10-06T16:30:27.292Z,24.50
2022-10-06T16:32:58.155Z,24.40
2022-10-06T16:35:28.993Z,24.20
2022-10-06T16:37:59.960Z,23.90
2022-10-06T16:40:30.897Z,23.90
2022-10-06T16:43:01.749Z,23.70
2022-10-06T16:45:32.690Z,23.70
2022-10-06T16:48:03.591Z,23.50
2022-10-06T16:50:34.444Z,23.40
2022-10-06T16:53:05.361Z,23.20
2022-10-06T16:55:36.994Z,23.30
2022-10-06T16:58:09.786Z,23.30
2022-10-06T17:00:40.714Z,23.00
2022-10-06T17:03:11.590Z,23.10
2022-10-06T17:05:42.446Z,22.90
2022-10-06T17:08:13.317Z,22.80
2022-10-06T17:10:44.196Z,22.70
2022-10-06T17:13:15.027Z,22.80
2022-10-06T17:15:45.988Z,22.90
2022-10-06T17:18:16.903Z,22.90
2022-10-06T17:21:00.915Z,22.70
2022-10-06T17:23:32.927Z,22.80
2022-10-06T17:26:16.726Z,22.70
2022-10-06T17:28:52.685Z,22.50
2022-10-06T17:31:29.493Z,22.50
2022-10-06T17:34:00.426Z,22.50
2022-10-06T17:36:31.965Z,22.60
2022-10-06T17:39:04.524Z,22.70
2022-10-06T17:41:40.167Z,22.70
2022-10-06T17:44:18.842Z,22.60
2022-10-06T17:46:52.532Z,22.70
2022-10-06T17:49:24.866Z,22.60
2022-10-06T17:51:56.014Z,22.60
2022-10-06T17:54:28.336Z,22.70
2022-10-06T17:56:59.860Z,22.70
2022-10-06T17:59:31.911Z,22.60
2022-10-06T18:02:03.768Z,22.60
2022-10-06T18:04:35.927Z,22.50
2022-10-06T18:07:08.549Z,22.50
2022-10-06T18:10:00.448Z,22.50
2022-10-06T18:12:36.133Z,22.60
2022-10-06T18:15:09.394Z,22.80
2022-10-06T18:17:41.526Z,22.90
2022-10-06T18:20:12.415Z,22.90
2022-10-06T18:22:43.803Z,22.50
2022-10-06T18:25:16.831Z,22.40
2022-10-06T18:27:47.937Z,22.60
2022-10-06T18:30:18.918Z,22.70
2022-10-06T18:38:32.306Z,22.40
2022-10-06T18:41:05.623Z,22.40
2022-10-06T18:43:37.059Z,22.20
2022-10-06T18:46:30.842Z,22.10
2022-10-06T18:49:12.430Z,22.30
2022-10-06T18:51:45.930Z,22.10
2022-10-06T18:54:27.021Z,22.10
2022-10-06T18:56:58.428Z,22.10
2022-10-06T18:59:32.016Z,21.90
2022-10-06T19:02:03.059Z,21.90
2022-10-06T19:04:35.896Z,21.70
2022-10-06T19:07:06.776Z,21.60
2022-10-06T19:09:38.991Z,21.50
2022-10-06T19:12:11.515Z,21.30
2022-10-06T19:14:47.423Z,21.50
2022-10-06T19:17:18.709Z,21.40
2022-10-06T19:19:51.376Z,21.20
2022-10-06T19:22:24.772Z,21.30
2022-10-06T19:24:55.829Z,21.00
2022-10-06T19:27:28.955Z,20.90
2022-10-06T19:30:00.089Z,22.20
2022-10-06T19:32:34.468Z,22.70
2022-10-06T19:35:10.110Z,22.00
2022-10-06T19:37:41.955Z,21.50
2022-10-06T19:40:13.035Z,21.40
2022-10-06T19:42:48.816Z,21.10
2022-10-06T19:45:21.054Z,21.10
2022-10-06T19:47:52.145Z,21.00
2022-10-06T19:50:23.584Z,21.10
2022-10-06T19:52:55.463Z,21.00
2022-10-06T19:55:28.588Z,21.00
2022-10-06T19:58:00.144Z,21.00
2022-10-06T20:00:31.664Z,20.70
2022-10-06T20:03:02.685Z,20.70
2022-10-06T20:05:38.321Z,20.80
2022-10-06T20:08:12.416Z,20.80
2022-10-06T20:10:44.063Z,20.90
2022-10-06T20:13:15.175Z,20.90
2022-10-06T20:15:46.003Z,20.90
2022-10-06T20:18:16.883Z,20.80
2022-10-06T20:20:58.171Z,20.70
2022-10-06T20:23:29.353Z,20.60
2022-10-06T20:26:23.764Z,20.90
2022-10-06T20:28:54.822Z,20.90
2022-10-06T20:31:30.245Z,20.80
2022-10-06T20:34:05.778Z,20.90
2022-10-06T20:36:38.206Z,20.90
2022-10-06T20:39:35.462Z,20.80
2022-10-06T20:42:13.656Z,20.70
2022-10-06T20:44:46.389Z,20.80
2022-10-06T20:47:17.346Z,21.10
2022-10-06T20:49:54.221Z,21.20
2022-10-06T20:52:25.137Z,21.10
2022-10-06T20:54:56.094Z,20.70
2022-10-06T20:57:33.491Z,20.80
2022-10-06T21:00:05.328Z,20.80
2022-10-06T21:02:36.365Z,20.60
2022-10-06T21:05:09.122Z,20.50
2022-10-06T21:07:40.300Z,20.80
2022-10-06T21:10:11.447Z,20.70
2022-10-06T21:12:43.461Z,20.90
2022-10-06T21:15:15.120Z,21.00
2022-10-06T21:17:48.100Z,20.70
2022-10-06T21:20:19.149Z,20.40
2022-10-06T21:22:50.619Z,20.50
2022-10-06T21:25:21.837Z,20.60
2022-10-06T21:27:53.114Z,20.60
2022-10-06T21:30:24.580Z,20.40
2022-10-06T21:32:55.730Z,20.50
2022-10-06T21:35:27.192Z,20.30
2022-10-06T21:37:58.386Z,20.30
2022-10-06T21:40:29.478Z,20.40
2022-10-06T21:43:00.685Z,20.50
2022-10-06T21:45:33.147Z,20.30
2022-10-06T21:48:04.546Z,20.60
2022-10-06T21:50:35.743Z,20.70
2022-10-06T21:53:07.010Z,20.80
2022-10-06T21:55:38.026Z,20.80
2022-10-06T21:58:09.035Z,20.60
2022-10-06T22:00:40.044Z,20.80
2022-10-06T22:03:11.165Z,21.10
2022-10-06T22:05:42.300Z,21.00
2022-10-06T22:08:13.498Z,20.80
2022-10-06T22:10:45.380Z,20.70
2022-10-06T22:13:16.365Z,20.30
2022-10-06T22:15:47.365Z,20.40
2022-10-06T22:18:18.398Z,21.00
2022-10-06T22:20:49.391Z,20.80
2022-10-06T22:23:20.389Z,20.40
2022-10-06T22:25:58.205Z,20.50
2022-10-06T22:28:30.069Z,20.30
2022-10-06T22:31:10.579Z,20.10
2022-10-06T22:33:42.934Z,20.20
2022-10-06T22:36:14.376Z,20.00
2022-10-06T22:38:45.481Z,20.00
2022-10-06T22:41:16.976Z,20.00
2022-10-06T22:43:48.235Z,20.10
2022-10-06T22:46:19.356Z,19.90
2022-10-06T22:48:50.942Z,19.90
2022-10-06T22:51:22.214Z,19.90
2022-10-06T22:53:59.303Z,20.10
2022-10-06T22:56:33.464Z,20.00
2022-10-06T22:59:04.592Z,19.80
2022-10-06T23:01:35.574Z,19.60
2022-10-06T23:04:06.578Z,19.60
2022-10-06T23:09:22.598Z,19.60
2022-10-06T23:11:53.617Z,19.50
2022-10-06T23:14:24.621Z,19.60
2022-10-06T23:16:55.642Z,19.50
2022-10-06T23:19:26.621Z,19.50
2022-10-06T23:21:57.609Z,19.50
2022-10-06T23:24:28.614Z,19.40
2022-10-06T23:27:04.344Z,19.50
2022-10-06T23:29:35.350Z,19.40
2022-10-06T23:32:06.337Z,19.60
2022-10-06T23:34:37.328Z,19.60
2022-10-06T23:37:08.405Z,19.60
2022-10-06T23:39:39.365Z,19.70
2022-10-06T23:42:10.557Z,19.60
2022-10-06T23:44:41.524Z,19.60
2022-10-06T23:47:12.575Z,19.50
2022-10-06T23:49:43.752Z,19.60
2022-10-06T23:52:14.735Z,19.70
2022-10-06T23:54:45.690Z,19.70
2022-10-06T23:57:16.734Z,19.70
2022-10-06T23:59:47.690Z,19.70
